Ethelsville, AL (35461)

2:51 AM CDT on August 01, 2014 (GMT -0500)
Near Intersection of Hwys 82 (KMSCOLUM10) Elev 154 ft | 33.50 °N, 88.43 °W | Change Station

Current weather conditions updated 10 seconds ago

Clear
Clear
68.2 °F
Feels Like 68.2 °F
N
0.0
Wind Variable Wind from ESE
Gusts 0.0 mph

Today is forecast to be Warmer than yesterday.

Today
High -- | Low -- °F
--% Chance of Precip.
Yesterday
High -- | Low -- °F
Precip. -- in
6:05 AM 7:52 PM
Waxing Crescent, 24% visible
Pressure 30.03 in
Visibility 7.0 miles
Clouds Clear
Dew Point 66 °F
Humidity 91%
Rainfall 0.00 in
Snow Depth Not available.
UV 0 out of 12
Pollen 4.40 out of 12
Air Quality Not available.
Flu Activity Not available.
METAR KGTR 010735Z 00000KT 7SM CLR 19/16 A3003 RMK AO1

More Conditions Fewer Conditions

Pressure 30.03 in
Visibility 7.0 miles
Clouds Clear
Dew Point 66 °F
Humidity 91%
Rainfall 0.00 in
Snow Depth Not available.
UV 0 out of 12
Pollen 4.40 out of 12
Air Quality Not available.
Flu Activity Not available.
METAR KGTR 010735Z 00000KT 7SM CLR 19/16 A3003 RMK AO1

More Conditions Fewer Conditions

10-Day Weather Forecast

Almanac

Astronomy

Aug. 01, 2014 Rise Set
Actual Time 6:05 AM CDT 7:52 PM CDT
Civil Twilight 5:38 AM CDT 8:19 PM CDT
Nautical Twilight 5:05 AM CDT 8:52 PM CDT
Astronomical Twilight 4:30 AM CDT 9:26 PM CDT
Moon 11:10 AM CDT 10:56 PM CDT
Length of Visible Light 14h 41m
Length of Day
13h 46m
Tomorrow will be 1m 34s shorter.
Waxing Crescent, 24% of the Moon is Illuminated
Today
Waxing Crescent
Aug 3
First Quarter
Aug 10
Full
Aug 17
Last Quarter
Aug 25
New

Today's Extremes

State Highs State Lows

Community

WunderPhotos

Upload Photos

1,739,522 photos uploaded!

Nearby

Snow Depth

Station Depth Elevation
No new snow has been reported.

Earthquake Activity

City Distance Mag. Time & Date
No recent earthquake activity has been reported nearby.
Minimum magnitude displayed is 2.5.

Coastal Water Temperatures

Place Temperature
No Stations Reporting

Nearby Weather Stations

Station Location Temp. Dew Point Humidity Wind Precip. Elev Updated Type
Near Intersection of Hwys 82, Columbus, MS 68.2 °F 66 °F 91% ESE  at  0.0 mph 0.00 in / hr 154 ft 2:51 AM CDT Rapid Fire
Shiloh, Steens, MS 64.8 °F 63 °F 93% NNE  at  0.0 mph - / hr 276 ft 2:41 AM CDT Normal
MesoWest DEE RIVER RANCH , Aliceville, AL 66 °F 63 °F 90% NNE  at  0 mph 0.00 in / hr 160 ft 12:00 AM CDT MADIS
Tibbee Bluff, Columbus, MS 69.9 °F 66 °F 86% SW  at  0.0 mph 0.00 in / hr 197 ft 2:30 AM CDT Normal
Lawrence St., Caledonia, MS 66.2 °F 64 °F 94% NNE  at  0.0 mph - / hr 295 ft 2:47 AM CDT Normal

Show More Stations Show Fewer Stations